createdAt,value
2019-05-06T00:00:34.275Z,9.00
2019-05-06T00:03:05.012Z,9.20
2019-05-06T00:05:34.732Z,8.77
2019-05-06T00:08:04.331Z,11.50
2019-05-06T00:10:35.554Z,8.23
2019-05-06T00:13:05.200Z,12.43
2019-05-06T00:15:34.686Z,9.33
2019-05-06T00:18:04.649Z,9.40
2019-05-06T00:20:34.990Z,9.40
2019-05-06T00:23:14.235Z,8.07
2019-05-06T00:26:01.161Z,7.83
2019-05-06T00:29:04.321Z,6.50
2019-05-06T00:31:34.513Z,6.77
2019-05-06T00:34:04.441Z,6.07
2019-05-06T00:36:34.441Z,9.63
2019-05-06T00:39:16.139Z,15.70
2019-05-06T00:41:49.013Z,10.27
2019-05-06T00:44:18.533Z,10.30
2019-05-06T00:46:48.000Z,11.03
2019-05-06T00:49:17.503Z,6.47
2019-05-06T00:51:46.999Z,10.60
2019-05-06T00:54:19.793Z,10.70
2019-05-06T00:56:49.284Z,10.03
2019-05-06T00:59:18.810Z,7.67
2019-05-06T01:01:48.290Z,8.63
2019-05-06T01:04:17.837Z,11.17
2019-05-06T01:06:47.405Z,4.90
2019-05-06T01:09:18.801Z,10.73
2019-05-06T01:11:50.074Z,10.23
2019-05-06T01:14:25.253Z,6.37
2019-05-06T01:16:54.882Z,8.47
2019-05-06T01:19:24.314Z,7.97
2019-05-06T01:21:54.101Z,11.43
2019-05-06T01:24:23.930Z,10.30
2019-05-06T01:26:53.763Z,10.17
2019-05-06T01:29:24.039Z,12.97
2019-05-06T01:31:54.418Z,10.40
2019-05-06T01:34:24.505Z,9.63
2019-05-06T01:36:54.683Z,5.63
2019-05-06T01:39:49.289Z,10.30
2019-05-06T01:42:27.891Z,10.03
2019-05-06T01:44:57.367Z,10.27
2019-05-06T01:47:26.910Z,11.77
2019-05-06T01:49:56.382Z,8.07
2019-05-06T01:52:25.854Z,9.50
2019-05-06T01:54:55.361Z,12.13
2019-05-06T01:57:24.841Z,12.03
2019-05-06T01:59:54.342Z,11.53
2019-05-06T02:02:25.018Z,7.80
2019-05-06T02:04:54.499Z,7.33
2019-05-06T02:07:24.244Z,8.00
2019-05-06T02:09:54.416Z,7.97
2019-05-06T02:12:24.567Z,12.40
2019-05-06T02:14:54.377Z,8.80
2019-05-06T02:17:24.060Z,9.20
2019-05-06T02:19:54.607Z,9.83
2019-05-06T02:22:31.587Z,10.57
2019-05-06T02:25:06.341Z,10.87
2019-05-06T02:27:39.008Z,8.70
2019-05-06T02:30:28.114Z,10.93
2019-05-06T02:33:15.436Z,10.50
2019-05-06T02:36:06.488Z,11.30
2019-05-06T02:38:46.068Z,8.30
2019-05-06T02:41:06.366Z,8.67
2019-05-06T02:43:35.820Z,9.17
2019-05-06T02:46:05.349Z,13.33
2019-05-06T02:49:00.074Z,8.87
2019-05-06T02:51:33.362Z,10.47
2019-05-06T02:54:03.246Z,8.73
2019-05-06T02:56:33.434Z,7.70
2019-05-06T02:59:03.964Z,10.17
2019-05-06T03:01:34.160Z,9.40
2019-05-06T03:04:04.580Z,12.07
2019-05-06T03:06:34.336Z,9.73
2019-05-06T03:09:05.504Z,6.93
2019-05-06T03:11:35.023Z,12.43
2019-05-06T03:14:04.609Z,8.13
2019-05-06T03:16:34.084Z,15.33
2019-05-06T03:19:04.689Z,13.70
2019-05-06T03:22:08.212Z,12.53
2019-05-06T03:24:56.919Z,14.00
2019-05-06T03:27:26.431Z,7.70
2019-05-06T03:29:55.932Z,15.83
2019-05-06T03:32:31.078Z,10.90
2019-05-06T03:35:19.305Z,14.80
2019-05-06T03:37:27.690Z,11.13
2019-05-06T03:39:57.183Z,15.13
2019-05-06T03:42:26.665Z,14.13
2019-05-06T03:45:00.082Z,13.13
2019-05-06T03:48:05.402Z,11.07
2019-05-06T03:50:33.662Z,12.00
2019-05-06T03:53:03.872Z,17.73
2019-05-06T03:55:34.457Z,10.80
2019-05-06T03:58:04.534Z,15.90
2019-05-06T04:00:35.130Z,10.40
2019-05-06T04:03:04.682Z,23.40
2019-05-06T04:05:34.244Z,20.53
2019-05-06T04:08:04.044Z,16.17
2019-05-06T04:10:36.839Z,14.87
2019-05-06T04:13:05.908Z,14.53
2019-05-06T04:15:54.028Z,10.03
2019-05-06T04:18:24.855Z,14.43
2019-05-06T04:21:03.785Z,13.00
2019-05-06T04:24:00.092Z,15.27
2019-05-06T04:26:48.823Z,10.67
2019-05-06T04:29:18.420Z,9.17
2019-05-06T04:31:47.903Z,13.10
2019-05-06T04:34:19.558Z,14.37
2019-05-06T04:36:48.758Z,12.40
2019-05-06T04:39:18.252Z,14.50
2019-05-06T04:41:47.721Z,12.17
2019-05-06T04:44:17.347Z,18.30
2019-05-06T04:46:46.808Z,21.17
2019-05-06T04:49:17.040Z,17.20
2019-05-06T04:51:46.513Z,14.60
2019-05-06T04:54:16.006Z,15.13
2019-05-06T04:56:45.472Z,14.03
2019-05-06T04:59:14.991Z,13.70
2019-05-06T05:01:45.485Z,17.27
2019-05-06T05:04:28.364Z,13.37
2019-05-06T05:06:47.218Z,14.30
2019-05-06T05:09:17.546Z,13.67
2019-05-06T05:11:55.094Z,12.87
2019-05-06T05:14:39.306Z,12.90
2019-05-06T05:17:33.122Z,14.13
2019-05-06T05:20:03.087Z,14.30
2019-05-06T05:22:32.697Z,12.90
2019-05-06T05:25:03.502Z,16.40
2019-05-06T05:27:33.331Z,16.37
2019-05-06T05:30:02.864Z,11.83
2019-05-06T05:32:32.347Z,19.43
2019-05-06T05:35:02.164Z,16.50
2019-05-06T05:37:32.839Z,18.43
2019-05-06T05:40:03.015Z,24.43
2019-05-06T05:42:52.128Z,16.13
2019-05-06T05:45:22.156Z,14.60
2019-05-06T05:47:53.628Z,18.57
2019-05-06T05:50:33.362Z,12.50
2019-05-06T05:53:03.102Z,14.80
2019-05-06T05:55:33.043Z,16.27
2019-05-06T05:58:03.348Z,12.63
2019-05-06T06:00:34.547Z,12.60
2019-05-06T06:03:06.799Z,16.20
2019-05-06T06:05:35.554Z,14.23
2019-05-06T06:08:05.058Z,15.97
2019-05-06T06:10:49.416Z,13.17
2019-05-06T06:13:19.237Z,14.30
2019-05-06T06:16:06.286Z,7.40
2019-05-06T06:19:03.829Z,10.60
2019-05-06T06:21:40.032Z,11.07
2019-05-06T06:24:23.718Z,14.07
2019-05-06T06:26:53.783Z,8.73
2019-05-06T06:29:23.341Z,10.43
2019-05-06T06:32:13.746Z,9.97
2019-05-06T06:34:52.139Z,6.27
2019-05-06T06:37:35.077Z,13.33
2019-05-06T06:40:05.087Z,9.37
2019-05-06T06:42:34.625Z,10.87
2019-05-06T06:45:04.296Z,15.10
2019-05-06T06:47:33.898Z,11.13
2019-05-06T06:50:06.247Z,10.93
2019-05-06T06:52:35.758Z,10.47
2019-05-06T06:55:05.762Z,13.93
2019-05-06T06:57:52.496Z,16.00
2019-05-06T07:00:47.382Z,10.60
2019-05-06T07:03:26.690Z,9.70
2019-05-06T07:06:04.211Z,13.17
2019-05-06T07:08:37.347Z,8.93
2019-05-06T07:11:04.903Z,10.87
2019-05-06T07:13:34.613Z,13.30
2019-05-06T07:16:04.145Z,9.30
2019-05-06T07:18:33.631Z,12.60
2019-05-06T07:21:08.167Z,9.57
2019-05-06T07:23:37.701Z,9.13
2019-05-06T07:26:07.238Z,9.73
2019-05-06T07:28:36.757Z,9.07
2019-05-06T07:31:20.694Z,8.63
2019-05-06T07:33:42.707Z,8.93
2019-05-06T07:36:13.070Z,9.53
2019-05-06T07:38:52.383Z,8.77
2019-05-06T07:41:27.288Z,7.20
2019-05-06T07:44:22.638Z,7.60
2019-05-06T07:47:07.681Z,6.37
2019-05-06T07:49:37.211Z,8.80
2019-05-06T07:52:06.709Z,13.00
2019-05-06T07:54:36.277Z,6.20
2019-05-06T07:57:05.750Z,8.53
2019-05-06T07:59:35.297Z,11.83
2019-05-06T08:02:04.879Z,8.90
2019-05-06T08:04:35.480Z,7.33
2019-05-06T08:07:04.969Z,7.10
2019-05-06T08:09:34.493Z,12.47
2019-05-06T08:12:04.009Z,12.63
2019-05-06T08:14:43.574Z,12.10
2019-05-06T08:17:23.890Z,10.03
2019-05-06T08:19:53.468Z,8.00
2019-05-06T08:22:44.189Z,8.07
2019-05-06T08:25:13.827Z,6.07
2019-05-06T08:27:43.304Z,9.07
2019-05-06T08:30:13.303Z,6.65
2019-05-06T08:32:42.860Z,7.13
2019-05-06T08:35:13.578Z,5.13
2019-05-06T08:37:43.166Z,8.55
2019-05-06T08:40:12.977Z,4.10
2019-05-06T08:42:42.794Z,4.67
2019-05-06T08:45:13.162Z,4.17
2019-05-06T08:47:42.809Z,4.62
2019-05-06T08:50:32.523Z,3.73
2019-05-06T08:53:27.229Z,5.00
2019-05-06T08:55:56.927Z,7.37
2019-05-06T08:58:44.020Z,5.28
2019-05-06T09:01:17.590Z,6.90
2019-05-06T09:03:47.070Z,4.47
2019-05-06T09:06:27.033Z,12.85
2019-05-06T09:08:52.012Z,5.05
2019-05-06T09:11:25.216Z,5.33
2019-05-06T09:13:52.251Z,5.62
2019-05-06T09:16:22.393Z,44.20
2019-05-06T09:18:53.304Z,9.20
2019-05-06T09:21:23.027Z,7.45
2019-05-06T09:23:53.213Z,8.23
2019-05-06T09:26:27.486Z,5.45
2019-05-06T09:29:06.857Z,3.75
2019-05-06T09:31:43.959Z,5.65
2019-05-06T09:34:49.550Z,3.47
2019-05-06T09:37:20.163Z,6.78
2019-05-06T09:39:50.085Z,3.98
2019-05-06T09:42:19.602Z,6.05
2019-05-06T09:44:53.658Z,6.55
2019-05-06T09:47:42.389Z,3.22
2019-05-06T09:50:14.594Z,6.90
2019-05-06T09:52:44.151Z,9.70
2019-05-06T09:55:33.972Z,4.75
2019-05-06T09:58:04.923Z,6.12
2019-05-06T10:00:37.766Z,7.30
2019-05-06T10:03:07.967Z,5.80
2019-05-06T10:05:37.491Z,5.97
2019-05-06T10:08:07.202Z,3.55
2019-05-06T10:10:36.680Z,3.45
2019-05-06T10:13:07.427Z,4.33
2019-05-06T10:15:37.009Z,4.67
2019-05-06T10:18:12.758Z,5.92
2019-05-06T10:20:44.058Z,3.08
2019-05-06T10:23:14.224Z,3.47
2019-05-06T10:25:44.197Z,2.77
2019-05-06T10:28:35.388Z,3.98
2019-05-06T10:31:07.105Z,4.42
2019-05-06T10:33:38.146Z,5.58
2019-05-06T10:36:07.666Z,3.20
2019-05-06T10:38:52.954Z,3.92
2019-05-06T10:41:26.427Z,3.83
2019-05-06T10:44:29.389Z,3.55
2019-05-06T10:46:58.924Z,4.25
2019-05-06T10:49:28.418Z,6.92
2019-05-06T10:52:08.121Z,4.47
2019-05-06T10:54:37.641Z,6.03
2019-05-06T10:57:19.309Z,5.37
2019-05-06T10:59:48.834Z,5.17
2019-05-06T11:02:44.334Z,3.65
2019-05-06T11:05:14.025Z,6.70
2019-05-06T11:07:43.581Z,2.33
2019-05-06T11:10:24.368Z,5.25
2019-05-06T11:12:44.957Z,7.75
2019-05-06T11:15:14.691Z,3.55
2019-05-06T11:17:44.318Z,5.58
2019-05-06T11:20:14.238Z,3.72
2019-05-06T11:22:43.871Z,3.87
2019-05-06T11:25:13.619Z,3.45
2019-05-06T11:27:45.068Z,4.08
2019-05-06T11:30:25.578Z,7.33
2019-05-06T11:33:09.495Z,6.67
2019-05-06T11:35:57.739Z,4.08
2019-05-06T11:38:27.240Z,6.05
2019-05-06T11:40:56.803Z,6.78
2019-05-06T11:43:26.254Z,5.25
2019-05-06T11:45:55.770Z,5.25
2019-05-06T11:48:25.285Z,4.72
2019-05-06T11:50:58.265Z,2.62
2019-05-06T11:53:27.888Z,4.40
2019-05-06T11:55:57.340Z,3.95
2019-05-06T11:58:44.395Z,4.50
2019-05-06T12:01:33.095Z,2.08
2019-05-06T12:04:03.067Z,3.02
2019-05-06T12:06:33.161Z,4.83
2019-05-06T12:09:06.419Z,2.35
2019-05-06T12:11:33.993Z,3.80
2019-05-06T12:14:03.662Z,6.85
2019-05-06T12:16:35.358Z,3.50
2019-05-06T12:19:04.965Z,4.50
2019-05-06T12:21:34.551Z,4.75
2019-05-06T12:24:04.154Z,6.50
2019-05-06T12:26:34.072Z,6.40
2019-05-06T12:29:03.627Z,5.78
2019-05-06T12:31:33.140Z,4.28
2019-05-06T12:34:02.935Z,3.77
2019-05-06T12:36:32.768Z,4.22
2019-05-06T12:39:20.336Z,5.30
2019-05-06T12:42:15.474Z,3.35
2019-05-06T12:44:53.485Z,5.22
2019-05-06T12:47:57.351Z,4.20
2019-05-06T12:50:26.885Z,4.62
2019-05-06T12:52:57.909Z,4.50
2019-05-06T12:55:27.519Z,5.72
2019-05-06T12:57:57.063Z,4.60
2019-05-06T13:00:28.702Z,5.12
2019-05-06T13:02:58.216Z,4.37
2019-05-06T13:05:27.803Z,3.17
2019-05-06T13:07:57.314Z,7.60
2019-05-06T13:10:26.843Z,3.22
2019-05-06T13:13:01.059Z,6.08
2019-05-06T13:15:30.733Z,5.15
2019-05-06T13:18:06.530Z,3.45
2019-05-06T13:20:35.682Z,3.22
2019-05-06T13:23:26.917Z,4.33
2019-05-06T13:25:56.397Z,4.95
2019-05-06T13:28:30.339Z,4.65
2019-05-06T13:31:13.387Z,2.52
2019-05-06T13:33:34.356Z,5.28
2019-05-06T13:36:04.227Z,6.03
2019-05-06T13:38:33.760Z,2.70
2019-05-06T13:41:03.478Z,7.72
2019-05-06T13:48:06.833Z,4.35
2019-05-06T13:50:38.504Z,3.40
2019-05-06T13:53:11.799Z,4.75
2019-05-06T13:55:39.307Z,2.92
2019-05-06T13:58:12.383Z,4.92
2019-05-06T14:00:42.418Z,2.95
2019-05-06T14:03:11.417Z,6.37
2019-05-06T14:05:42.486Z,3.42
2019-05-06T14:08:13.034Z,5.00
2019-05-06T14:10:43.943Z,4.17
2019-05-06T14:13:13.395Z,4.97
2019-05-06T14:15:45.927Z,3.87
2019-05-06T14:18:15.449Z,4.72
2019-05-06T14:20:44.910Z,3.70
2019-05-06T14:23:14.644Z,6.03
2019-05-06T14:26:04.205Z,4.60
2019-05-06T14:28:42.759Z,4.83
2019-05-06T14:31:17.060Z,4.45
2019-05-06T14:33:46.564Z,4.80
2019-05-06T14:36:16.073Z,4.55
2019-05-06T14:38:45.569Z,5.42
2019-05-06T14:41:18.245Z,20.12
2019-05-06T14:43:47.752Z,14.58
2019-05-06T14:46:17.407Z,5.28
2019-05-06T14:48:46.945Z,6.53
2019-05-06T14:51:16.562Z,4.47
2019-05-06T14:53:46.022Z,5.00
2019-05-06T14:56:22.588Z,5.58
2019-05-06T14:59:08.147Z,4.58
2019-05-06T15:01:39.049Z,6.05
2019-05-06T15:04:08.491Z,4.03
2019-05-06T15:06:38.013Z,6.92
2019-05-06T15:09:09.007Z,3.22
2019-05-06T15:11:38.606Z,5.78
2019-05-06T15:14:08.093Z,5.37
2019-05-06T15:16:37.802Z,5.62
2019-05-06T15:19:07.329Z,4.08
2019-05-06T15:21:38.850Z,5.35
2019-05-06T15:24:07.992Z,4.87
2019-05-06T15:26:37.530Z,3.25
2019-05-06T15:29:07.061Z,7.62
2019-05-06T15:32:02.625Z,5.12
2019-05-06T15:34:42.284Z,3.85
2019-05-06T15:37:18.887Z,3.62
2019-05-06T15:39:48.449Z,2.65
2019-05-06T15:42:17.926Z,3.37
2019-05-06T15:44:47.496Z,2.15
2019-05-06T15:47:16.994Z,1.57
2019-05-06T15:49:46.467Z,1.90
2019-05-06T15:52:16.026Z,1.45
2019-05-06T15:54:45.539Z,2.42
2019-05-06T15:57:15.121Z,1.40
2019-05-06T15:59:44.671Z,1.92
2019-05-06T16:02:14.191Z,2.75
2019-05-06T16:04:43.805Z,3.00
2019-05-06T16:07:14.627Z,2.10
2019-05-06T16:09:47.078Z,1.80
2019-05-06T16:12:16.639Z,2.08
2019-05-06T16:14:48.612Z,1.40
2019-05-06T16:17:18.327Z,4.17
2019-05-06T16:19:47.863Z,1.40
2019-05-06T16:22:17.396Z,2.63
2019-05-06T16:24:53.093Z,3.27
2019-05-06T16:27:23.039Z,6.57
2019-05-06T16:29:53.040Z,2.43
2019-05-06T16:32:22.622Z,2.03
2019-05-06T16:34:52.581Z,3.80
2019-05-06T16:37:22.340Z,1.67
2019-05-06T16:39:54.540Z,2.93
2019-05-06T16:42:23.591Z,7.73
2019-05-06T16:44:53.178Z,2.47
2019-05-06T16:47:38.771Z,5.13
2019-05-06T16:50:12.863Z,3.83
2019-05-06T16:52:42.604Z,2.57
2019-05-06T16:55:17.231Z,2.37
2019-05-06T16:57:53.046Z,2.00
2019-05-06T17:00:24.719Z,2.90
2019-05-06T17:03:04.152Z,2.00
2019-05-06T17:05:42.589Z,3.23
2019-05-06T17:08:12.369Z,3.53
2019-05-06T17:10:43.300Z,3.70
2019-05-06T17:13:12.979Z,4.57
2019-05-06T17:15:42.448Z,3.53
2019-05-06T17:18:15.041Z,4.13
2019-05-06T17:20:44.570Z,6.93
2019-05-06T17:23:14.148Z,6.50
2019-05-06T17:25:44.753Z,2.63
2019-05-06T17:28:24.290Z,3.27
2019-05-06T17:31:07.366Z,2.03
2019-05-06T17:33:42.861Z,3.10
2019-05-06T17:36:14.378Z,4.07
2019-05-06T17:38:46.449Z,2.83
2019-05-06T17:41:15.974Z,4.03
2019-05-06T17:43:45.581Z,2.23
2019-05-06T17:46:17.125Z,4.10
2019-05-06T17:49:02.370Z,2.70
2019-05-06T17:51:57.061Z,3.07
2019-05-06T17:54:28.266Z,4.73
2019-05-06T17:56:57.886Z,2.20
2019-05-06T17:59:27.517Z,2.67
2019-05-06T18:02:01.273Z,2.93
2019-05-06T18:04:31.062Z,2.13
2019-05-06T18:07:00.830Z,4.23
2019-05-06T18:09:30.436Z,2.70
2019-05-06T18:12:02.842Z,2.60
2019-05-06T18:14:33.160Z,2.50
2019-05-06T18:17:04.242Z,4.00
2019-05-06T18:19:33.911Z,3.03
2019-05-06T18:22:03.615Z,4.47
2019-05-06T18:24:33.768Z,5.40
2019-05-06T18:27:03.398Z,3.00
2019-05-06T18:29:33.549Z,5.27
2019-05-06T18:32:03.916Z,4.80
2019-05-06T18:34:33.502Z,2.80
2019-05-06T18:37:06.105Z,4.60
2019-05-06T18:39:35.623Z,2.93
2019-05-06T18:42:15.496Z,5.57
2019-05-06T18:44:36.434Z,6.63
2019-05-06T18:47:08.294Z,4.70
2019-05-06T18:49:39.880Z,3.40
2019-05-06T18:52:09.585Z,4.20
2019-05-06T18:54:39.102Z,4.07
2019-05-06T18:57:08.600Z,4.07
2019-05-06T18:59:38.182Z,4.27
2019-05-06T19:02:07.698Z,5.07
2019-05-06T19:04:52.324Z,6.03
2019-05-06T19:07:22.174Z,19.30
2019-05-06T19:10:03.219Z,15.20
2019-05-06T19:12:40.778Z,5.97
2019-05-06T19:15:04.156Z,5.03
2019-05-06T19:17:33.772Z,4.83
2019-05-06T19:20:03.296Z,2.70
2019-05-06T19:22:32.979Z,4.53
2019-05-06T19:25:02.820Z,5.50
2019-05-06T19:27:33.409Z,4.67
2019-05-06T19:30:03.148Z,2.93
2019-05-06T19:32:35.123Z,3.73
2019-05-06T19:35:03.781Z,3.73
2019-05-06T19:37:33.305Z,5.20
2019-05-06T19:40:03.067Z,4.87
2019-05-06T19:42:46.118Z,11.20
2019-05-06T19:45:03.957Z,4.40
2019-05-06T19:47:34.200Z,4.17
2019-05-06T19:50:03.803Z,4.77
2019-05-06T19:52:33.364Z,6.93
2019-05-06T19:55:03.256Z,2.90
2019-05-06T19:57:32.857Z,3.63
2019-05-06T20:00:03.194Z,3.77
2019-05-06T20:02:32.957Z,3.23
2019-05-06T20:05:06.924Z,5.50
2019-05-06T20:08:07.113Z,4.23
2019-05-06T20:10:44.375Z,4.80
2019-05-06T20:13:13.850Z,5.13
2019-05-06T20:15:43.355Z,5.30
2019-05-06T20:18:12.842Z,9.10
2019-05-06T20:20:42.614Z,5.97
2019-05-06T20:23:12.640Z,8.03
2019-05-06T20:25:44.727Z,8.07
2019-05-06T20:28:13.470Z,6.07
2019-05-06T20:30:42.955Z,7.27
2019-05-06T20:33:14.697Z,8.57
2019-05-06T20:35:44.222Z,7.90
2019-05-06T20:38:13.744Z,9.40
2019-05-06T20:40:43.375Z,10.17
2019-05-06T20:43:20.057Z,11.30
2019-05-06T20:45:44.179Z,9.07
2019-05-06T20:48:13.670Z,8.00
2019-05-06T20:50:43.258Z,8.00
2019-05-06T20:53:12.947Z,8.23
2019-05-06T20:55:43.325Z,10.40
2019-05-06T20:58:13.180Z,6.90
2019-05-06T21:00:43.161Z,7.33
2019-05-06T21:03:12.848Z,6.03
2019-05-06T21:05:43.431Z,7.13
2019-05-06T21:08:13.934Z,7.77
2019-05-06T21:10:43.781Z,7.87
2019-05-06T21:13:17.543Z,10.23
2019-05-06T21:15:44.557Z,8.87
2019-05-06T21:18:14.080Z,8.30
2019-05-06T21:20:43.803Z,10.23
2019-05-06T21:23:13.457Z,13.00
2019-05-06T21:25:43.263Z,11.67
2019-05-06T21:28:12.862Z,9.77
2019-05-06T21:30:42.968Z,9.83
2019-05-06T21:33:12.726Z,12.17
2019-05-06T21:35:42.514Z,11.23
2019-05-06T21:38:12.390Z,13.63
2019-05-06T21:40:43.404Z,9.00
2019-05-06T21:43:13.300Z,8.50
2019-05-06T21:45:42.842Z,8.47
2019-05-06T21:48:13.800Z,9.60
2019-05-06T21:50:43.408Z,8.87
2019-05-06T21:53:14.669Z,7.30
2019-05-06T21:55:44.139Z,9.37
2019-05-06T21:58:13.622Z,8.47
2019-05-06T22:00:49.755Z,9.70
2019-05-06T22:03:18.966Z,6.63
2019-05-06T22:05:48.185Z,7.13
2019-05-06T22:08:17.314Z,7.60
2019-05-06T22:10:46.517Z,7.43
2019-05-06T22:13:15.611Z,9.47
2019-05-06T22:15:44.842Z,10.13
2019-05-06T22:18:14.030Z,8.47
2019-05-06T22:21:02.878Z,9.67
2019-05-06T22:23:52.410Z,9.90
2019-05-06T22:26:23.204Z,8.70
2019-05-06T22:28:53.018Z,10.87
2019-05-06T22:31:24.371Z,13.00
2019-05-06T22:33:53.606Z,10.37
2019-05-06T22:36:41.174Z,8.87
2019-05-06T22:39:12.034Z,8.93
2019-05-06T22:41:41.518Z,9.47
2019-05-06T22:44:14.087Z,11.10
2019-05-06T22:46:42.450Z,11.13
2019-05-06T22:49:13.351Z,8.43
2019-05-06T22:51:42.826Z,8.73
2019-05-06T22:54:12.188Z,11.80
2019-05-06T22:56:41.534Z,10.23
2019-05-06T22:59:12.664Z,9.07
2019-05-06T23:01:55.127Z,9.67
2019-05-06T23:04:26.249Z,9.37
2019-05-06T23:06:55.596Z,8.97
2019-05-06T23:09:25.172Z,10.73
2019-05-06T23:11:54.524Z,13.60
2019-05-06T23:14:31.059Z,9.97
2019-05-06T23:16:54.842Z,10.30
2019-05-06T23:19:24.589Z,11.17
2019-05-06T23:21:54.064Z,8.90
2019-05-06T23:24:26.217Z,10.83
2019-05-06T23:26:55.573Z,13.40
2019-05-06T23:29:24.928Z,11.67
2019-05-06T23:31:54.481Z,9.97
2019-05-06T23:34:23.872Z,11.43
2019-05-06T23:37:26.688Z,14.20
2019-05-06T23:40:39.911Z,12.20
2019-05-06T23:43:45.279Z,12.37
2019-05-06T23:46:52.799Z,13.43
2019-05-06T23:49:57.951Z,11.43
2019-05-06T23:53:03.335Z,13.17
2019-05-06T23:56:08.286Z,10.13
2019-05-06T23:58:37.636Z,13.50
